sensor_id;sensor_type;location;lat;lon;timestamp;P1;durP1;ratioP1;P2;durP2;ratioP2
29314;SDS011;16320;53.954;9.506;2022-09-20T00:00:36;12.00;;;1.92;;
29314;SDS011;16320;53.954;9.506;2022-09-20T00:08:37;7.22;;;2.58;;
29314;SDS011;16320;53.954;9.506;2022-09-20T00:11:50;7.55;;;2.50;;
29314;SDS011;16320;53.954;9.506;2022-09-20T00:15:04;5.68;;;2.00;;
29314;SDS011;16320;53.954;9.506;2022-09-20T00:19:03;11.55;;;1.92;;
29314;SDS011;16320;53.954;9.506;2022-09-20T00:22:19;6.82;;;2.00;;
29314;SDS011;16320;53.954;9.506;2022-09-20T00:25:32;4.60;;;2.10;;
29314;SDS011;16320;53.954;9.506;2022-09-20T00:29:03;9.32;;;1.98;;
29314;SDS011;16320;53.954;9.506;2022-09-20T00:32:19;5.50;;;1.85;;
29314;SDS011;16320;53.954;9.506;2022-09-20T00:35:43;9.30;;;1.70;;
29314;SDS011;16320;53.954;9.506;2022-09-20T00:39:48;8.85;;;2.00;;
29314;SDS011;16320;53.954;9.506;2022-09-20T00:42:59;7.53;;;1.98;;
29314;SDS011;16320;53.954;9.506;2022-09-20T00:46:37;5.53;;;2.08;;
29314;SDS011;16320;53.954;9.506;2022-09-20T00:54:35;7.57;;;2.22;;
29314;SDS011;16320;53.954;9.506;2022-09-20T00:57:48;5.07;;;1.25;;
29314;SDS011;16320;53.954;9.506;2022-09-20T01:01:12;4.03;;;1.50;;
29314;SDS011;16320;53.954;9.506;2022-09-20T01:04:48;6.65;;;1.60;;
29314;SDS011;16320;53.954;9.506;2022-09-20T01:07:55;5.93;;;1.50;;
29314;SDS011;16320;53.954;9.506;2022-09-20T01:11:04;3.55;;;1.50;;
29314;SDS011;16320;53.954;9.506;2022-09-20T01:14:15;5.03;;;1.23;;
29314;SDS011;16320;53.954;9.506;2022-09-20T01:17:29;5.47;;;1.38;;
29314;SDS011;16320;53.954;9.506;2022-09-20T01:20:38;4.65;;;1.90;;
29314;SDS011;16320;53.954;9.506;2022-09-20T01:27:42;4.03;;;1.55;;
29314;SDS011;16320;53.954;9.506;2022-09-20T01:34:35;4.57;;;1.63;;
29314;SDS011;16320;53.954;9.506;2022-09-20T01:38:02;4.03;;;1.35;;
29314;SDS011;16320;53.954;9.506;2022-09-20T01:48:04;5.63;;;1.75;;
29314;SDS011;16320;53.954;9.506;2022-09-20T02:06:32;2.22;;;1.10;;
29314;SDS011;16320;53.954;9.506;2022-09-20T02:10:37;3.33;;;1.17;;
29314;SDS011;16320;53.954;9.506;2022-09-20T02:29:32;4.07;;;1.30;;
29314;SDS011;16320;53.954;9.506;2022-09-20T02:33:20;4.03;;;1.40;;
29314;SDS011;16320;53.954;9.506;2022-09-20T02:45:08;3.40;;;1.20;;
29314;SDS011;16320;53.954;9.506;2022-09-20T03:00:09;3.50;;;1.17;;
29314;SDS011;16320;53.954;9.506;2022-09-20T03:03:30;3.90;;;1.27;;
29314;SDS011;16320;53.954;9.506;2022-09-20T03:15:21;3.47;;;0.98;;
29314;SDS011;16320;53.954;9.506;2022-09-20T03:38:56;6.25;;;1.05;;
29314;SDS011;16320;53.954;9.506;2022-09-20T03:42:25;3.22;;;1.35;;
29314;SDS011;16320;53.954;9.506;2022-09-20T03:45:37;5.13;;;0.80;;
29314;SDS011;16320;53.954;9.506;2022-09-20T03:49:25;1.52;;;1.00;;
29314;SDS011;16320;53.954;9.506;2022-09-20T04:03:44;5.20;;;1.08;;
29314;SDS011;16320;53.954;9.506;2022-09-20T04:07:12;4.72;;;1.40;;
29314;SDS011;16320;53.954;9.506;2022-09-20T04:21:57;7.22;;;1.40;;
29314;SDS011;16320;53.954;9.506;2022-09-20T04:25:16;10.40;;;1.40;;
29314;SDS011;16320;53.954;9.506;2022-09-20T04:28:42;8.93;;;1.52;;
29314;SDS011;16320;53.954;9.506;2022-09-20T04:32:12;4.28;;;1.55;;
29314;SDS011;16320;53.954;9.506;2022-09-20T04:39:48;8.35;;;1.77;;
29314;SDS011;16320;53.954;9.506;2022-09-20T04:43:20;7.68;;;1.65;;
29314;SDS011;16320;53.954;9.506;2022-09-20T04:55:03;5.45;;;1.75;;
29314;SDS011;16320;53.954;9.506;2022-09-20T05:07:01;9.43;;;2.13;;
29314;SDS011;16320;53.954;9.506;2022-09-20T05:32:17;10.75;;;1.98;;
29314;SDS011;16320;53.954;9.506;2022-09-20T05:43:08;8.05;;;1.73;;
29314;SDS011;16320;53.954;9.506;2022-09-20T05:46:31;6.88;;;2.15;;
29314;SDS011;16320;53.954;9.506;2022-09-20T05:53:49;10.23;;;2.15;;
29314;SDS011;16320;53.954;9.506;2022-09-20T06:01:24;11.27;;;2.20;;
29314;SDS011;16320;53.954;9.506;2022-09-20T06:04:51;4.38;;;1.95;;
29314;SDS011;16320;53.954;9.506;2022-09-20T06:15:13;6.45;;;2.05;;
29314;SDS011;16320;53.954;9.506;2022-09-20T06:22:44;3.38;;;1.75;;
29314;SDS011;16320;53.954;9.506;2022-09-20T06:25:58;6.55;;;2.63;;
29314;SDS011;16320;53.954;9.506;2022-09-20T06:29:10;7.32;;;2.60;;
29314;SDS011;16320;53.954;9.506;2022-09-20T06:32:17;6.22;;;2.15;;
29314;SDS011;16320;53.954;9.506;2022-09-20T06:35:23;9.95;;;2.40;;
29314;SDS011;16320;53.954;9.506;2022-09-20T06:38:37;7.70;;;2.40;;
29314;SDS011;16320;53.954;9.506;2022-09-20T06:42:24;8.73;;;2.35;;
29314;SDS011;16320;53.954;9.506;2022-09-20T06:45:30;4.72;;;2.00;;
29314;SDS011;16320;53.954;9.506;2022-09-20T06:48:35;8.48;;;2.60;;
29314;SDS011;16320;53.954;9.506;2022-09-20T06:51:42;8.50;;;2.50;;
29314;SDS011;16320;53.954;9.506;2022-09-20T06:54:48;14.48;;;2.15;;
29314;SDS011;16320;53.954;9.506;2022-09-20T06:57:56;10.63;;;2.47;;
29314;SDS011;16320;53.954;9.506;2022-09-20T07:01:01;12.38;;;2.50;;
29314;SDS011;16320;53.954;9.506;2022-09-20T07:04:06;11.18;;;2.67;;
29314;SDS011;16320;53.954;9.506;2022-09-20T07:07:14;12.65;;;2.30;;
29314;SDS011;16320;53.954;9.506;2022-09-20T07:10:24;6.85;;;2.38;;
29314;SDS011;16320;53.954;9.506;2022-09-20T07:13:34;8.93;;;2.05;;
29314;SDS011;16320;53.954;9.506;2022-09-20T07:16:39;6.28;;;2.22;;
29314;SDS011;16320;53.954;9.506;2022-09-20T07:19:44;8.02;;;1.85;;
29314;SDS011;16320;53.954;9.506;2022-09-20T07:22:49;4.55;;;1.67;;
29314;SDS011;16320;53.954;9.506;2022-09-20T07:25:53;9.38;;;2.20;;
29314;SDS011;16320;53.954;9.506;2022-09-20T07:29:02;6.75;;;1.60;;
29314;SDS011;16320;53.954;9.506;2022-09-20T07:32:06;7.65;;;2.33;;
29314;SDS011;16320;53.954;9.506;2022-09-20T07:35:11;7.70;;;1.60;;
29314;SDS011;16320;53.954;9.506;2022-09-20T07:38:16;9.50;;;1.98;;
29314;SDS011;16320;53.954;9.506;2022-09-20T07:41:21;7.18;;;2.88;;
29314;SDS011;16320;53.954;9.506;2022-09-20T07:44:25;13.90;;;3.03;;
29314;SDS011;16320;53.954;9.506;2022-09-20T07:47:32;20.25;;;2.80;;
29314;SDS011;16320;53.954;9.506;2022-09-20T07:50:38;9.38;;;1.75;;
29314;SDS011;16320;53.954;9.506;2022-09-20T07:53:42;7.45;;;1.38;;
29314;SDS011;16320;53.954;9.506;2022-09-20T07:56:47;8.52;;;1.50;;
29314;SDS011;16320;53.954;9.506;2022-09-20T07:59:52;10.68;;;1.50;;
29314;SDS011;16320;53.954;9.506;2022-09-20T08:02:57;11.00;;;1.50;;
29314;SDS011;16320;53.954;9.506;2022-09-20T08:09:13;8.15;;;1.27;;
29314;SDS011;16320;53.954;9.506;2022-09-20T08:12:22;17.77;;;2.03;;
29314;SDS011;16320;53.954;9.506;2022-09-20T08:15:59;12.48;;;1.65;;
29314;SDS011;16320;53.954;9.506;2022-09-20T08:19:13;8.85;;;1.60;;
29314;SDS011;16320;53.954;9.506;2022-09-20T08:22:28;15.25;;;1.30;;
29314;SDS011;16320;53.954;9.506;2022-09-20T08:25:50;14.88;;;1.95;;
29314;SDS011;16320;53.954;9.506;2022-09-20T08:29:15;7.35;;;1.10;;
29314;SDS011;16320;53.954;9.506;2022-09-20T08:32:19;9.13;;;1.63;;
29314;SDS011;16320;53.954;9.506;2022-09-20T08:35:24;9.80;;;1.77;;
29314;SDS011;16320;53.954;9.506;2022-09-20T08:38:33;7.47;;;1.02;;
29314;SDS011;16320;53.954;9.506;2022-09-20T08:42:09;14.32;;;1.58;;
29314;SDS011;16320;53.954;9.506;2022-09-20T08:45:37;17.23;;;2.20;;
29314;SDS011;16320;53.954;9.506;2022-09-20T08:48:42;16.73;;;1.38;;
29314;SDS011;16320;53.954;9.506;2022-09-20T08:51:48;14.20;;;1.27;;
29314;SDS011;16320;53.954;9.506;2022-09-20T08:54:53;13.93;;;1.90;;
29314;SDS011;16320;53.954;9.506;2022-09-20T08:58:00;8.15;;;1.15;;
29314;SDS011;16320;53.954;9.506;2022-09-20T09:01:42;9.68;;;1.40;;
29314;SDS011;16320;53.954;9.506;2022-09-20T09:04:59;11.60;;;1.77;;
29314;SDS011;16320;53.954;9.506;2022-09-20T09:08:14;13.70;;;1.58;;
29314;SDS011;16320;53.954;9.506;2022-09-20T09:11:31;10.32;;;1.70;;
29314;SDS011;16320;53.954;9.506;2022-09-20T09:14:39;11.73;;;1.45;;
29314;SDS011;16320;53.954;9.506;2022-09-20T09:18:14;6.35;;;0.93;;
29314;SDS011;16320;53.954;9.506;2022-09-20T09:21:25;10.68;;;1.63;;
29314;SDS011;16320;53.954;9.506;2022-09-20T09:24:33;4.03;;;1.55;;
29314;SDS011;16320;53.954;9.506;2022-09-20T09:34:43;9.88;;;0.98;;
29314;SDS011;16320;53.954;9.506;2022-09-20T09:38:01;7.70;;;1.15;;
29314;SDS011;16320;53.954;9.506;2022-09-20T09:44:32;11.05;;;1.50;;
29314;SDS011;16320;53.954;9.506;2022-09-20T09:47:37;12.85;;;2.63;;
29314;SDS011;16320;53.954;9.506;2022-09-20T09:50:42;5.97;;;0.98;;
29314;SDS011;16320;53.954;9.506;2022-09-20T09:53:46;10.15;;;2.13;;
29314;SDS011;16320;53.954;9.506;2022-09-20T10:00:15;4.90;;;0.90;;
29314;SDS011;16320;53.954;9.506;2022-09-20T10:07:15;6.60;;;1.15;;
29314;SDS011;16320;53.954;9.506;2022-09-20T10:14:43;4.22;;;0.85;;
29314;SDS011;16320;53.954;9.506;2022-09-20T10:18:24;9.70;;;1.35;;
29314;SDS011;16320;53.954;9.506;2022-09-20T10:25:20;5.53;;;0.95;;
29314;SDS011;16320;53.954;9.506;2022-09-20T10:29:06;8.10;;;1.45;;
29314;SDS011;16320;53.954;9.506;2022-09-20T10:39:47;9.13;;;1.40;;
29314;SDS011;16320;53.954;9.506;2022-09-20T11:01:13;6.50;;;1.10;;
29314;SDS011;16320;53.954;9.506;2022-09-20T11:07:55;8.05;;;1.38;;
29314;SDS011;16320;53.954;9.506;2022-09-20T11:11:24;7.47;;;1.20;;
29314;SDS011;16320;53.954;9.506;2022-09-20T11:14:40;5.75;;;1.02;;
29314;SDS011;16320;53.954;9.506;2022-09-20T11:18:13;8.85;;;1.08;;
29314;SDS011;16320;53.954;9.506;2022-09-20T11:21:36;4.20;;;0.80;;
29314;SDS011;16320;53.954;9.506;2022-09-20T11:24:56;10.70;;;1.58;;
29314;SDS011;16320;53.954;9.506;2022-09-20T11:28:20;6.10;;;1.42;;
29314;SDS011;16320;53.954;9.506;2022-09-20T11:31:52;5.53;;;0.93;;
29314;SDS011;16320;53.954;9.506;2022-09-20T11:35:09;7.30;;;0.93;;
29314;SDS011;16320;53.954;9.506;2022-09-20T11:38:33;8.07;;;1.00;;
29314;SDS011;16320;53.954;9.506;2022-09-20T11:41:55;7.00;;;1.10;;
29314;SDS011;16320;53.954;9.506;2022-09-20T11:45:03;7.95;;;1.17;;
29314;SDS011;16320;53.954;9.506;2022-09-20T11:48:09;3.13;;;0.52;;
29314;SDS011;16320;53.954;9.506;2022-09-20T11:51:46;4.60;;;1.42;;
29314;SDS011;16320;53.954;9.506;2022-09-20T11:55:24;3.03;;;0.80;;
29314;SDS011;16320;53.954;9.506;2022-09-20T11:58:53;6.60;;;0.68;;
29314;SDS011;16320;53.954;9.506;2022-09-20T12:02:13;3.13;;;0.73;;
29314;SDS011;16320;53.954;9.506;2022-09-20T12:05:38;10.57;;;1.27;;
29314;SDS011;16320;53.954;9.506;2022-09-20T12:08:44;9.57;;;1.60;;
29314;SDS011;16320;53.954;9.506;2022-09-20T12:11:54;6.13;;;1.27;;
29314;SDS011;16320;53.954;9.506;2022-09-20T12:15:00;10.05;;;1.05;;
29314;SDS011;16320;53.954;9.506;2022-09-20T12:28:44;3.63;;;0.75;;
29314;SDS011;16320;53.954;9.506;2022-09-20T12:31:59;2.88;;;0.93;;
29314;SDS011;16320;53.954;9.506;2022-09-20T12:38:38;6.15;;;0.80;;
29314;SDS011;16320;53.954;9.506;2022-09-20T12:45:31;12.55;;;0.88;;
29314;SDS011;16320;53.954;9.506;2022-09-20T12:48:36;7.70;;;1.52;;
29314;SDS011;16320;53.954;9.506;2022-09-20T12:51:41;3.97;;;0.77;;
29314;SDS011;16320;53.954;9.506;2022-09-20T12:58:36;10.88;;;0.77;;
29314;SDS011;16320;53.954;9.506;2022-09-20T13:01:47;3.35;;;0.70;;
29314;SDS011;16320;53.954;9.506;2022-09-20T13:04:53;5.78;;;0.70;;
29314;SDS011;16320;53.954;9.506;2022-09-20T13:08:03;2.80;;;0.90;;
29314;SDS011;16320;53.954;9.506;2022-09-20T13:14:46;10.43;;;1.08;;
29314;SDS011;16320;53.954;9.506;2022-09-20T13:17:51;4.65;;;0.82;;
29314;SDS011;16320;53.954;9.506;2022-09-20T13:20:59;2.05;;;0.60;;
29314;SDS011;16320;53.954;9.506;2022-09-20T13:24:11;4.38;;;0.70;;
29314;SDS011;16320;53.954;9.506;2022-09-20T13:27:25;5.25;;;0.80;;
29314;SDS011;16320;53.954;9.506;2022-09-20T13:30:37;6.80;;;0.52;;
29314;SDS011;16320;53.954;9.506;2022-09-20T13:33:45;7.63;;;1.00;;
29314;SDS011;16320;53.954;9.506;2022-09-20T13:36:52;5.07;;;0.90;;
29314;SDS011;16320;53.954;9.506;2022-09-20T13:40:02;4.68;;;0.80;;
29314;SDS011;16320;53.954;9.506;2022-09-20T13:46:31;5.10;;;0.80;;
29314;SDS011;16320;53.954;9.506;2022-09-20T13:49:41;6.60;;;0.68;;
29314;SDS011;16320;53.954;9.506;2022-09-20T13:52:51;3.65;;;0.60;;
29314;SDS011;16320;53.954;9.506;2022-09-20T13:56:08;7.20;;;0.73;;
29314;SDS011;16320;53.954;9.506;2022-09-20T14:02:27;6.07;;;0.75;;
29314;SDS011;16320;53.954;9.506;2022-09-20T14:05:35;6.70;;;1.80;;
29314;SDS011;16320;53.954;9.506;2022-09-20T14:08:43;4.97;;;0.82;;
29314;SDS011;16320;53.954;9.506;2022-09-20T14:11:52;6.45;;;0.70;;
29314;SDS011;16320;53.954;9.506;2022-09-20T14:14:57;3.88;;;0.90;;
29314;SDS011;16320;53.954;9.506;2022-09-20T14:18:02;4.22;;;0.60;;
29314;SDS011;16320;53.954;9.506;2022-09-20T14:21:09;3.80;;;0.65;;
29314;SDS011;16320;53.954;9.506;2022-09-20T14:27:20;3.72;;;0.77;;
29314;SDS011;16320;53.954;9.506;2022-09-20T14:30:29;3.03;;;0.40;;
29314;SDS011;16320;53.954;9.506;2022-09-20T14:33:39;7.80;;;1.10;;
29314;SDS011;16320;53.954;9.506;2022-09-20T14:37:04;7.45;;;0.88;;
29314;SDS011;16320;53.954;9.506;2022-09-20T14:40:30;6.75;;;0.85;;
29314;SDS011;16320;53.954;9.506;2022-09-20T14:43:43;5.60;;;0.88;;
29314;SDS011;16320;53.954;9.506;2022-09-20T14:46:48;2.95;;;0.57;;
29314;SDS011;16320;53.954;9.506;2022-09-20T14:49:53;2.17;;;0.45;;
29314;SDS011;16320;53.954;9.506;2022-09-20T14:53:00;5.03;;;0.80;;
29314;SDS011;16320;53.954;9.506;2022-09-20T14:56:08;2.25;;;0.65;;
29314;SDS011;16320;53.954;9.506;2022-09-20T15:02:24;5.75;;;1.10;;
29314;SDS011;16320;53.954;9.506;2022-09-20T15:05:30;4.35;;;0.65;;
29314;SDS011;16320;53.954;9.506;2022-09-20T15:08:35;4.45;;;0.65;;
29314;SDS011;16320;53.954;9.506;2022-09-20T15:11:40;7.03;;;0.88;;
29314;SDS011;16320;53.954;9.506;2022-09-20T15:14:57;6.97;;;1.00;;
29314;SDS011;16320;53.954;9.506;2022-09-20T15:18:01;3.72;;;0.73;;
29314;SDS011;16320;53.954;9.506;2022-09-20T15:21:32;2.67;;;0.68;;
29314;SDS011;16320;53.954;9.506;2022-09-20T15:24:39;3.55;;;0.85;;
29314;SDS011;16320;53.954;9.506;2022-09-20T15:27:45;5.43;;;1.50;;
29314;SDS011;16320;53.954;9.506;2022-09-20T15:30:50;4.43;;;0.98;;
29314;SDS011;16320;53.954;9.506;2022-09-20T15:33:56;7.82;;;1.00;;
29314;SDS011;16320;53.954;9.506;2022-09-20T15:40:33;3.90;;;0.68;;
29314;SDS011;16320;53.954;9.506;2022-09-20T15:43:38;4.32;;;0.95;;
29314;SDS011;16320;53.954;9.506;2022-09-20T15:46:45;5.25;;;0.60;;
29314;SDS011;16320;53.954;9.506;2022-09-20T15:49:51;4.15;;;0.60;;
29314;SDS011;16320;53.954;9.506;2022-09-20T15:52:56;1.85;;;0.32;;
29314;SDS011;16320;53.954;9.506;2022-09-20T15:56:04;5.22;;;0.82;;
29314;SDS011;16320;53.954;9.506;2022-09-20T15:59:24;2.78;;;1.00;;
29314;SDS011;16320;53.954;9.506;2022-09-20T16:02:29;7.68;;;1.08;;
29314;SDS011;16320;53.954;9.506;2022-09-20T16:05:33;4.45;;;0.50;;
29314;SDS011;16320;53.954;9.506;2022-09-20T16:08:40;3.95;;;0.57;;
29314;SDS011;16320;53.954;9.506;2022-09-20T16:11:46;5.07;;;0.70;;
29314;SDS011;16320;53.954;9.506;2022-09-20T16:14:51;3.33;;;0.80;;
29314;SDS011;16320;53.954;9.506;2022-09-20T16:17:56;2.67;;;0.80;;
29314;SDS011;16320;53.954;9.506;2022-09-20T16:21:19;3.10;;;0.80;;
29314;SDS011;16320;53.954;9.506;2022-09-20T16:24:28;3.55;;;0.57;;
29314;SDS011;16320;53.954;9.506;2022-09-20T16:27:35;2.97;;;0.70;;
29314;SDS011;16320;53.954;9.506;2022-09-20T16:30:40;4.78;;;0.50;;
29314;SDS011;16320;53.954;9.506;2022-09-20T16:33:45;5.30;;;0.75;;
29314;SDS011;16320;53.954;9.506;2022-09-20T16:36:50;3.83;;;0.60;;
29314;SDS011;16320;53.954;9.506;2022-09-20T16:40:18;3.22;;;0.68;;
29314;SDS011;16320;53.954;9.506;2022-09-20T16:43:32;5.03;;;0.82;;
29314;SDS011;16320;53.954;9.506;2022-09-20T16:46:38;3.08;;;0.80;;
29314;SDS011;16320;53.954;9.506;2022-09-20T16:49:42;5.00;;;1.02;;
29314;SDS011;16320;53.954;9.506;2022-09-20T16:52:48;3.17;;;0.95;;
29314;SDS011;16320;53.954;9.506;2022-09-20T16:55:52;4.20;;;0.98;;
29314;SDS011;16320;53.954;9.506;2022-09-20T16:59:00;1.65;;;0.65;;
29314;SDS011;16320;53.954;9.506;2022-09-20T17:02:08;9.88;;;1.13;;
29314;SDS011;16320;53.954;9.506;2022-09-20T17:05:20;12.57;;;1.00;;
29314;SDS011;16320;53.954;9.506;2022-09-20T17:08:25;3.30;;;1.13;;
29314;SDS011;16320;53.954;9.506;2022-09-20T17:11:31;9.68;;;1.15;;
29314;SDS011;16320;53.954;9.506;2022-09-20T17:14:41;3.80;;;0.90;;
29314;SDS011;16320;53.954;9.506;2022-09-20T17:17:47;7.53;;;1.00;;
29314;SDS011;16320;53.954;9.506;2022-09-20T17:20:52;3.55;;;1.02;;
29314;SDS011;16320;53.954;9.506;2022-09-20T17:23:57;6.88;;;1.10;;
29314;SDS011;16320;53.954;9.506;2022-09-20T17:27:02;8.25;;;1.77;;
29314;SDS011;16320;53.954;9.506;2022-09-20T17:30:07;5.60;;;1.00;;
29314;SDS011;16320;53.954;9.506;2022-09-20T17:33:13;8.48;;;2.00;;
29314;SDS011;16320;53.954;9.506;2022-09-20T17:36:18;6.57;;;1.50;;
29314;SDS011;16320;53.954;9.506;2022-09-20T17:39:24;7.68;;;1.65;;
29314;SDS011;16320;53.954;9.506;2022-09-20T17:42:28;10.43;;;2.10;;
29314;SDS011;16320;53.954;9.506;2022-09-20T17:45:34;9.25;;;2.53;;
29314;SDS011;16320;53.954;9.506;2022-09-20T17:48:39;6.60;;;1.75;;
29314;SDS011;16320;53.954;9.506;2022-09-20T17:51:49;6.82;;;1.85;;
29314;SDS011;16320;53.954;9.506;2022-09-20T17:54:56;8.30;;;1.50;;
29314;SDS011;16320;53.954;9.506;2022-09-20T17:58:00;4.60;;;1.35;;
29314;SDS011;16320;53.954;9.506;2022-09-20T18:01:06;5.72;;;1.83;;
29314;SDS011;16320;53.954;9.506;2022-09-20T18:04:17;8.27;;;1.33;;
29314;SDS011;16320;53.954;9.506;2022-09-20T18:07:24;7.72;;;1.35;;
29314;SDS011;16320;53.954;9.506;2022-09-20T18:10:28;6.00;;;0.90;;
29314;SDS011;16320;53.954;9.506;2022-09-20T18:13:33;5.65;;;1.33;;
29314;SDS011;16320;53.954;9.506;2022-09-20T18:16:39;6.40;;;1.70;;
29314;SDS011;16320;53.954;9.506;2022-09-20T18:19:45;15.90;;;2.40;;
29314;SDS011;16320;53.954;9.506;2022-09-20T18:22:50;6.68;;;1.30;;
29314;SDS011;16320;53.954;9.506;2022-09-20T18:25:55;5.30;;;1.13;;
29314;SDS011;16320;53.954;9.506;2022-09-20T18:29:18;7.47;;;1.38;;
29314;SDS011;16320;53.954;9.506;2022-09-20T18:32:23;5.65;;;1.20;;
29314;SDS011;16320;53.954;9.506;2022-09-20T18:35:29;3.45;;;0.90;;
29314;SDS011;16320;53.954;9.506;2022-09-20T18:38:34;13.77;;;1.42;;
29314;SDS011;16320;53.954;9.506;2022-09-20T18:41:40;6.97;;;1.52;;
29314;SDS011;16320;53.954;9.506;2022-09-20T18:44:46;5.38;;;1.40;;
29314;SDS011;16320;53.954;9.506;2022-09-20T18:47:52;5.30;;;1.10;;
29314;SDS011;16320;53.954;9.506;2022-09-20T18:51:00;10.60;;;1.60;;
29314;SDS011;16320;53.954;9.506;2022-09-20T18:54:07;5.80;;;0.98;;
29314;SDS011;16320;53.954;9.506;2022-09-20T18:57:14;7.18;;;1.25;;
29314;SDS011;16320;53.954;9.506;2022-09-20T19:00:19;4.45;;;1.23;;
29314;SDS011;16320;53.954;9.506;2022-09-20T19:03:26;9.00;;;1.88;;
29314;SDS011;16320;53.954;9.506;2022-09-20T19:14:02;6.63;;;1.60;;
29314;SDS011;16320;53.954;9.506;2022-09-20T19:17:16;7.70;;;1.57;;
29314;SDS011;16320;53.954;9.506;2022-09-20T19:21:07;4.13;;;1.73;;
29314;SDS011;16320;53.954;9.506;2022-09-20T19:27:53;7.60;;;1.77;;
29314;SDS011;16320;53.954;9.506;2022-09-20T19:30:58;7.68;;;1.85;;
29314;SDS011;16320;53.954;9.506;2022-09-20T19:34:05;5.82;;;1.40;;
29314;SDS011;16320;53.954;9.506;2022-09-20T19:44:17;9.48;;;2.70;;
29314;SDS011;16320;53.954;9.506;2022-09-20T19:51:35;9.48;;;2.03;;
29314;SDS011;16320;53.954;9.506;2022-09-20T19:54:41;9.35;;;2.42;;
29314;SDS011;16320;53.954;9.506;2022-09-20T19:57:49;5.05;;;1.90;;
29314;SDS011;16320;53.954;9.506;2022-09-20T20:00:55;9.45;;;1.90;;
29314;SDS011;16320;53.954;9.506;2022-09-20T20:04:01;6.10;;;2.22;;
29314;SDS011;16320;53.954;9.506;2022-09-20T20:14:24;10.82;;;1.63;;
29314;SDS011;16320;53.954;9.506;2022-09-20T20:17:54;6.65;;;1.90;;
29314;SDS011;16320;53.954;9.506;2022-09-20T20:21:16;5.90;;;1.38;;
29314;SDS011;16320;53.954;9.506;2022-09-20T20:27:56;5.50;;;1.30;;
29314;SDS011;16320;53.954;9.506;2022-09-20T20:31:01;11.68;;;2.15;;
29314;SDS011;16320;53.954;9.506;2022-09-20T20:34:06;5.57;;;1.75;;
29314;SDS011;16320;53.954;9.506;2022-09-20T20:37:11;6.80;;;1.83;;
29314;SDS011;16320;53.954;9.506;2022-09-20T20:40:16;6.05;;;1.80;;
29314;SDS011;16320;53.954;9.506;2022-09-20T20:43:21;4.15;;;1.63;;
29314;SDS011;16320;53.954;9.506;2022-09-20T20:46:27;9.23;;;1.85;;
29314;SDS011;16320;53.954;9.506;2022-09-20T20:49:31;10.40;;;1.55;;
29314;SDS011;16320;53.954;9.506;2022-09-20T20:52:36;5.25;;;1.33;;
29314;SDS011;16320;53.954;9.506;2022-09-20T20:55:40;5.25;;;1.55;;
29314;SDS011;16320;53.954;9.506;2022-09-20T20:58:45;8.45;;;1.48;;
29314;SDS011;16320;53.954;9.506;2022-09-20T21:01:50;9.68;;;1.00;;
29314;SDS011;16320;53.954;9.506;2022-09-20T21:04:55;7.38;;;1.58;;
29314;SDS011;16320;53.954;9.506;2022-09-20T21:07:59;5.95;;;1.60;;
29314;SDS011;16320;53.954;9.506;2022-09-20T21:11:06;4.60;;;1.35;;
29314;SDS011;16320;53.954;9.506;2022-09-20T21:14:19;7.63;;;2.13;;
29314;SDS011;16320;53.954;9.506;2022-09-20T21:17:24;4.75;;;1.27;;
29314;SDS011;16320;53.954;9.506;2022-09-20T21:20:28;5.05;;;1.08;;
29314;SDS011;16320;53.954;9.506;2022-09-20T21:23:33;5.70;;;1.40;;
29314;SDS011;16320;53.954;9.506;2022-09-20T21:26:38;5.93;;;2.08;;
29314;SDS011;16320;53.954;9.506;2022-09-20T21:29:43;6.60;;;1.88;;
29314;SDS011;16320;53.954;9.506;2022-09-20T21:32:48;4.07;;;1.45;;
29314;SDS011;16320;53.954;9.506;2022-09-20T21:35:56;2.92;;;1.40;;
29314;SDS011;16320;53.954;9.506;2022-09-20T21:39:03;7.32;;;1.60;;
29314;SDS011;16320;53.954;9.506;2022-09-20T21:42:08;12.20;;;3.88;;
29314;SDS011;16320;53.954;9.506;2022-09-20T21:45:13;12.07;;;3.20;;
29314;SDS011;16320;53.954;9.506;2022-09-20T21:48:18;11.10;;;4.10;;
29314;SDS011;16320;53.954;9.506;2022-09-20T21:51:23;15.73;;;3.78;;
29314;SDS011;16320;53.954;9.506;2022-09-20T21:54:32;9.25;;;2.80;;
29314;SDS011;16320;53.954;9.506;2022-09-20T21:57:36;7.50;;;2.70;;
29314;SDS011;16320;53.954;9.506;2022-09-20T22:00:41;9.70;;;2.33;;
29314;SDS011;16320;53.954;9.506;2022-09-20T22:03:54;9.35;;;2.22;;
29314;SDS011;16320;53.954;9.506;2022-09-20T22:07:02;4.20;;;1.67;;
29314;SDS011;16320;53.954;9.506;2022-09-20T22:10:07;10.88;;;2.13;;
29314;SDS011;16320;53.954;9.506;2022-09-20T22:13:11;11.25;;;2.50;;
29314;SDS011;16320;53.954;9.506;2022-09-20T22:16:26;11.68;;;2.40;;
29314;SDS011;16320;53.954;9.506;2022-09-20T22:19:33;4.57;;;1.67;;
29314;SDS011;16320;53.954;9.506;2022-09-20T22:22:38;8.88;;;1.58;;
29314;SDS011;16320;53.954;9.506;2022-09-20T22:25:43;5.90;;;1.98;;
29314;SDS011;16320;53.954;9.506;2022-09-20T22:28:48;5.50;;;2.45;;
29314;SDS011;16320;53.954;9.506;2022-09-20T22:31:52;9.38;;;2.50;;
29314;SDS011;16320;53.954;9.506;2022-09-20T22:34:57;5.65;;;1.80;;
29314;SDS011;16320;53.954;9.506;2022-09-20T22:38:03;6.18;;;2.05;;
29314;SDS011;16320;53.954;9.506;2022-09-20T22:41:07;7.88;;;1.55;;
29314;SDS011;16320;53.954;9.506;2022-09-20T22:44:13;5.35;;;1.50;;
29314;SDS011;16320;53.954;9.506;2022-09-20T22:47:18;6.22;;;1.50;;
29314;SDS011;16320;53.954;9.506;2022-09-20T22:50:22;7.78;;;1.92;;
29314;SDS011;16320;53.954;9.506;2022-09-20T22:53:30;6.65;;;1.85;;
29314;SDS011;16320;53.954;9.506;2022-09-20T22:56:35;5.85;;;1.55;;
29314;SDS011;16320;53.954;9.506;2022-09-20T22:59:42;3.60;;;1.38;;
29314;SDS011;16320;53.954;9.506;2022-09-20T23:02:46;6.40;;;1.67;;
29314;SDS011;16320;53.954;9.506;2022-09-20T23:05:51;4.63;;;1.45;;
29314;SDS011;16320;53.954;9.506;2022-09-20T23:08:56;9.25;;;1.88;;
29314;SDS011;16320;53.954;9.506;2022-09-20T23:12:03;5.28;;;1.80;;
29314;SDS011;16320;53.954;9.506;2022-09-20T23:15:08;7.30;;;1.65;;
29314;SDS011;16320;53.954;9.506;2022-09-20T23:18:14;4.88;;;1.55;;
29314;SDS011;16320;53.954;9.506;2022-09-20T23:21:19;3.67;;;1.50;;
29314;SDS011;16320;53.954;9.506;2022-09-20T23:24:24;8.52;;;2.15;;
29314;SDS011;16320;53.954;9.506;2022-09-20T23:27:28;4.38;;;1.70;;
29314;SDS011;16320;53.954;9.506;2022-09-20T23:30:33;7.43;;;1.83;;
29314;SDS011;16320;53.954;9.506;2022-09-20T23:33:37;5.05;;;1.55;;
29314;SDS011;16320;53.954;9.506;2022-09-20T23:36:48;4.78;;;1.60;;
29314;SDS011;16320;53.954;9.506;2022-09-20T23:39:53;9.95;;;1.92;;
29314;SDS011;16320;53.954;9.506;2022-09-20T23:42:57;9.63;;;2.13;;
29314;SDS011;16320;53.954;9.506;2022-09-20T23:46:02;4.57;;;1.58;;
29314;SDS011;16320;53.954;9.506;2022-09-20T23:49:08;3.83;;;1.50;;
29314;SDS011;16320;53.954;9.506;2022-09-20T23:52:12;7.07;;;1.60;;
29314;SDS011;16320;53.954;9.506;2022-09-20T23:55:17;2.65;;;1.30;;
29314;SDS011;16320;53.954;9.506;2022-09-20T23:58:21;8.45;;;1.27;;
